Time,TemperatureF,DewpointF,PressureIn,WindDirection,WindDirectionDegrees,WindSpeedMPH,WindSpeedGustMPH,Humidity,HourlyPrecipIn,Conditions,Clouds,dailyrainin,SoftwareType,DateUTC
2013-07-10 00:02:00,77.9,57.2,29.85,North,0,0.0,0.0,49,0.00,RA,OVC,0.00,WeatherDisplay:10.37,2013-07-10 05:02:00,
2013-07-10 00:07:00,77.9,57.2,29.85,North,0,0.0,0.0,49,0.00,RA,OVC,0.00,WeatherDisplay:10.37,2013-07-10 05:07:00,
2013-07-10 00:12:00,77.9,57.8,29.85,North,0,0.0,0.0,50,0.00,FEW,OVC,0.00,WeatherDisplay:10.37,2013-07-10 05:12:00,
2013-07-10 00:17:00,77.9,57.8,29.85,North,0,0.0,0.0,50,0.00,FEW,OVC,0.00,WeatherDisplay:10.37,2013-07-10 05:17:00,
2013-07-10 00:22:00,77.9,58.3,29.85,North,0,0.0,0.0,51,0.00,FEW,OVC,0.00,WeatherDisplay:10.37,2013-07-10 05:22:00,
2013-07-10 00:27:00,77.9,58.3,29.85,North,0,0.0,0.0,51,0.00,FEW,OVC,0.00,WeatherDisplay:10.37,2013-07-10 05:27:00,
2013-07-10 00:32:00,77.9,58.3,29.85,North,0,0.0,0.0,51,0.00,FEW,OVC,0.00,WeatherDisplay:10.37,2013-07-10 05:32:00,
2013-07-10 00:37:00,77.7,58.7,29.85,North,0,0.0,0.0,52,0.00,FEW,OVC,0.00,WeatherDisplay:10.37,2013-07-10 05:37:00,
2013-07-10 00:42:00,77.7,58.7,29.85,North,0,0.0,0.0,52,0.00,FEW,OVC,0.00,WeatherDisplay:10.37,2013-07-10 05:42:00,
2013-07-10 00:47:00,77.7,58.7,29.85,North,0,0.0,0.0,52,0.00,FEW,OVC,0.00,WeatherDisplay:10.37,2013-07-10 05:47:00,
2013-07-10 00:52:00,77.5,58.5,29.85,North,0,0.0,0.0,52,0.00,FEW,OVC,0.00,WeatherDisplay:10.37,2013-07-10 05:52:00,
2013-07-10 00:57:00,77.5,59.1,29.85,North,0,0.0,0.0,53,0.00,FEW,OVC,0.00,WeatherDisplay:10.37,2013-07-10 05:57:00,
2013-07-10 01:02:00,77.4,58.9,29.85,North,0,0.0,0.0,53,0.00,BKN,OVC,0.00,WeatherDisplay:10.37,2013-07-10 06:02:00,
2013-07-10 01:07:00,77.4,58.9,29.85,North,0,0.0,0.0,53,0.00,BKN,OVC,0.00,WeatherDisplay:10.37,2013-07-10 06:07:00,
2013-07-10 01:12:00,77.4,58.9,29.85,North,0,0.0,0.0,53,0.00,BKN,OVC,0.00,WeatherDisplay:10.37,2013-07-10 06:12:00,
2013-07-10 01:17:00,77.2,58.7,29.85,North,0,0.0,0.0,53,0.00,BKN,OVC,0.00,WeatherDisplay:10.37,2013-07-10 06:17:00,
2013-07-10 01:22:00,77.2,59.2,29.85,North,0,0.0,0.0,54,0.00,BKN,OVC,0.00,WeatherDisplay:10.37,2013-07-10 06:22:00,
2013-07-10 01:27:00,77.2,59.2,29.85,North,0,0.0,0.0,54,0.00,BKN,OVC,0.00,WeatherDisplay:10.37,2013-07-10 06:27:00,
2013-07-10 01:32:00,77.2,59.2,29.85,North,0,0.0,0.0,54,0.00,BKN,OVC,0.00,WeatherDisplay:10.37,2013-07-10 06:32:00,
2013-07-10 01:37:00,77.2,59.8,29.85,North,0,0.0,0.0,55,0.00,BKN,OVC,0.00,WeatherDisplay:10.37,2013-07-10 06:37:00,
2013-07-10 01:42:00,77.2,59.8,29.85,North,0,0.0,0.0,55,0.00,BKN,OVC,0.00,WeatherDisplay:10.37,2013-07-10 06:42:00,
2013-07-10 01:47:00,77.2,59.8,29.85,North,0,0.0,0.0,55,0.00,BKN,OVC,0.00,WeatherDisplay:10.37,2013-07-10 06:47:00,
2013-07-10 01:52:00,77.0,59.6,29.85,North,0,0.0,0.0,55,0.00,BKN,OVC,0.00,WeatherDisplay:10.37,2013-07-10 06:52:00,
2013-07-10 01:57:00,77.0,60.1,29.85,North,0,0.0,0.0,56,0.00,BKN,OVC,0.00,WeatherDisplay:10.37,2013-07-10 06:57:00,
2013-07-10 02:02:00,77.0,60.1,29.85,North,0,0.0,0.0,56,0.00,FEW,OVC,0.00,WeatherDisplay:10.37,2013-07-10 07:02:00,
2013-07-10 02:07:00,77.0,60.1,29.85,North,0,0.0,0.0,56,0.00,FEW,OVC,0.00,WeatherDisplay:10.37,2013-07-10 07:07:00,
2013-07-10 02:12:00,76.8,60.4,29.85,North,0,0.0,0.0,57,0.00,FEW,OVC,0.00,WeatherDisplay:10.37,2013-07-10 07:12:00,
2013-07-10 02:17:00,76.8,60.4,29.85,North,0,0.0,0.0,57,0.00,FEW,OVC,0.00,WeatherDisplay:10.37,2013-07-10 07:17:00,
2013-07-10 02:22:00,76.8,60.4,29.85,North,0,0.0,0.0,57,0.00,FEW,OVC,0.00,WeatherDisplay:10.37,2013-07-10 07:22:00,
2013-07-10 02:27:00,76.8,60.4,29.82,North,0,0.0,0.0,57,0.00,FEW,OVC,0.00,WeatherDisplay:10.37,2013-07-10 07:27:00,
2013-07-10 02:32:00,76.8,60.4,29.82,North,0,0.0,0.0,57,0.00,FEW,OVC,0.00,WeatherDisplay:10.37,2013-07-10 07:32:00,
2013-07-10 02:38:00,76.6,60.8,29.82,North,0,0.0,0.0,58,0.00,FEW,OVC,0.00,WeatherDisplay:10.37,2013-07-10 07:38:00,
2013-07-10 02:43:00,76.6,60.8,29.82,North,0,0.0,0.0,58,0.00,FEW,OVC,0.00,WeatherDisplay:10.37,2013-07-10 07:43:00,
2013-07-10 02:48:00,76.5,60.6,29.82,North,0,0.0,0.0,58,0.00,FEW,OVC,0.00,WeatherDisplay:10.37,2013-07-10 07:48:00,
2013-07-10 02:53:00,76.5,60.6,29.82,North,0,0.0,0.0,58,0.00,FEW,OVC,0.00,WeatherDisplay:10.37,2013-07-10 07:53:00,
2013-07-10 02:58:00,76.5,60.6,29.85,North,0,0.0,0.0,58,0.00,FEW,OVC,0.00,WeatherDisplay:10.37,2013-07-10 07:58:00,
2013-07-10 03:03:00,76.3,60.4,29.85,North,0,0.0,0.0,58,0.00,BKN,OVC,0.00,WeatherDisplay:10.37,2013-07-10 08:03:00,
2013-07-10 03:08:00,76.3,60.4,29.85,North,0,0.0,0.0,58,0.00,BKN,OVC,0.00,WeatherDisplay:10.37,2013-07-10 08:08:00,
2013-07-10 03:13:00,76.3,60.9,29.85,North,0,0.0,0.0,59,0.00,BKN,OVC,0.00,WeatherDisplay:10.37,2013-07-10 08:13:00,
2013-07-10 03:18:00,76.3,60.9,29.85,North,0,0.0,0.0,59,0.00,BKN,OVC,0.00,WeatherDisplay:10.37,2013-07-10 08:18:00,
2013-07-10 03:23:00,76.1,60.7,29.85,North,0,0.0,0.0,59,0.00,BKN,OVC,0.00,WeatherDisplay:10.37,2013-07-10 08:23:00,
2013-07-10 03:28:00,76.3,60.9,29.85,North,0,0.0,0.0,59,0.00,BKN,OVC,0.00,WeatherDisplay:10.37,2013-07-10 08:28:00,
2013-07-10 03:33:00,76.1,60.7,29.85,North,0,0.0,0.0,59,0.00,BKN,OVC,0.00,WeatherDisplay:10.37,2013-07-10 08:33:00,
2013-07-10 03:38:00,76.3,61.4,29.85,North,0,0.0,0.0,60,0.00,BKN,OVC,0.00,WeatherDisplay:10.37,2013-07-10 08:38:00,
2013-07-10 03:43:00,76.3,61.4,29.85,North,0,0.0,0.0,60,0.00,BKN,OVC,0.00,WeatherDisplay:10.37,2013-07-10 08:43:00,
2013-07-10 03:48:00,76.3,61.4,29.85,North,0,0.0,0.0,60,0.00,BKN,OVC,0.00,WeatherDisplay:10.37,2013-07-10 08:48:00,
2013-07-10 03:53:00,76.3,61.4,29.85,North,0,0.0,0.0,60,0.00,BKN,OVC,0.00,WeatherDisplay:10.37,2013-07-10 08:53:00,
2013-07-10 03:58:00,76.5,61.5,29.85,North,0,0.0,0.0,60,0.00,BKN,OVC,0.00,WeatherDisplay:10.37,2013-07-10 08:58:00,
2013-07-10 04:03:00,76.5,61.5,29.85,North,0,0.0,0.0,60,0.00,BKN,OVC,0.00,WeatherDisplay:10.37,2013-07-10 09:03:00,
2013-07-10 04:08:00,76.5,62.0,29.85,North,0,0.0,0.0,61,0.00,BKN,OVC,0.00,WeatherDisplay:10.37,2013-07-10 09:08:00,
2013-07-10 04:13:00,76.6,62.2,29.85,North,0,0.0,0.0,61,0.00,BKN,OVC,0.00,WeatherDisplay:10.37,2013-07-10 09:13:00,
2013-07-10 04:18:00,76.6,62.2,29.85,North,0,0.0,0.0,61,0.00,BKN,OVC,0.00,WeatherDisplay:10.37,2013-07-10 09:18:00,
2013-07-10 04:23:00,76.6,62.2,29.85,North,0,0.0,0.0,61,0.00,BKN,OVC,0.00,WeatherDisplay:10.37,2013-07-10 09:23:00,
2013-07-10 04:28:00,76.8,62.3,29.85,North,0,0.0,0.0,61,0.00,BKN,OVC,0.00,WeatherDisplay:10.37,2013-07-10 09:28:00,
2013-07-10 04:33:00,76.8,62.3,29.85,North,0,0.0,0.0,61,0.00,BKN,OVC,0.00,WeatherDisplay:10.37,2013-07-10 09:33:00,
2013-07-10 04:38:00,76.6,62.2,29.85,North,0,0.0,0.0,61,0.00,BKN,OVC,0.00,WeatherDisplay:10.37,2013-07-10 09:38:00,
2013-07-10 04:43:00,76.6,62.2,29.85,North,0,0.0,0.0,61,0.00,BKN,OVC,0.00,WeatherDisplay:10.37,2013-07-10 09:43:00,
2013-07-10 04:48:00,76.6,61.7,29.85,North,0,0.0,0.0,60,0.00,BKN,OVC,0.00,WeatherDisplay:10.37,2013-07-10 09:48:00,
2013-07-10 04:53:00,76.6,60.3,29.85,North,0,0.0,0.0,57,0.00,BKN,OVC,0.00,WeatherDisplay:10.37,2013-07-10 09:53:00,
2013-07-10 04:58:00,76.8,59.4,29.88,North,0,0.0,0.0,55,0.00,BKN,OVC,0.00,WeatherDisplay:10.37,2013-07-10 09:58:00,
2013-07-10 05:03:00,76.6,58.2,29.88,North,0,0.0,0.0,53,0.00,SCT,OVC,0.00,WeatherDisplay:10.37,2013-07-10 10:03:00,
2013-07-10 05:08:00,76.6,57.7,29.88,North,0,0.0,0.0,52,0.00,SCT,OVC,0.00,WeatherDisplay:10.37,2013-07-10 10:08:00,
2013-07-10 05:13:00,76.6,56.6,29.85,North,0,0.0,0.0,50,0.00,SCT,OVC,0.00,WeatherDisplay:10.37,2013-07-10 10:13:00,
2013-07-10 05:18:00,76.5,55.9,29.85,North,0,0.0,0.0,49,0.00,SCT,OVC,0.00,WeatherDisplay:10.37,2013-07-10 10:18:00,
2013-07-10 05:23:00,76.5,53.5,29.85,North,0,0.0,0.0,45,0.00,SCT,OVC,0.00,WeatherDisplay:10.37,2013-07-10 10:23:00,
2013-07-10 05:28:00,76.3,53.4,29.88,North,0,0.0,0.0,45,0.00,SCT,OVC,0.00,WeatherDisplay:10.37,2013-07-10 10:28:00,
2013-07-10 05:33:00,76.3,52.8,29.88,North,0,0.0,0.0,44,0.00,SCT,OVC,0.00,WeatherDisplay:10.37,2013-07-10 10:33:00,
2013-07-10 05:38:00,76.3,52.8,29.88,North,0,0.0,0.0,44,0.00,SCT,OVC,0.00,WeatherDisplay:10.37,2013-07-10 10:38:00,
2013-07-10 05:43:00,76.1,52.6,29.88,North,0,0.0,0.0,44,0.00,SCT,OVC,0.00,WeatherDisplay:10.37,2013-07-10 10:43:00,
2013-07-10 05:48:00,76.1,52.6,29.88,North,0,0.0,0.0,44,0.00,SCT,OVC,0.00,WeatherDisplay:10.37,2013-07-10 10:48:00,
2013-07-10 05:53:00,76.1,52.0,29.88,North,0,0.0,0.0,43,0.00,SCT,OVC,0.00,WeatherDisplay:10.37,2013-07-10 10:53:00,
2013-07-10 05:58:00,75.9,51.8,29.88,North,0,0.0,0.0,43,0.00,SCT,OVC,0.00,WeatherDisplay:10.37,2013-07-10 10:58:00,
2013-07-10 06:03:00,75.9,51.2,29.88,North,0,0.0,0.0,42,0.00,BKN,OVC,0.00,WeatherDisplay:10.37,2013-07-10 11:03:00,
2013-07-10 06:08:00,75.7,51.0,29.88,North,0,0.0,0.0,42,0.00,BKN,OVC,0.00,WeatherDisplay:10.37,2013-07-10 11:08:00,
2013-07-10 06:13:00,75.7,49.7,29.88,North,0,0.0,0.0,40,0.00,BKN,OVC,0.00,WeatherDisplay:10.37,2013-07-10 11:13:00,
2013-07-10 06:18:00,75.7,48.3,29.88,North,0,0.0,0.0,38,0.00,BKN,OVC,0.00,WeatherDisplay:10.37,2013-07-10 11:18:00,
2013-07-10 06:23:00,75.7,47.6,29.88,North,0,0.0,0.0,37,0.00,BKN,OVC,0.00,WeatherDisplay:10.37,2013-07-10 11:23:00,
2013-07-10 06:28:00,75.7,47.6,29.88,North,0,0.0,0.0,37,0.00,BKN,OVC,0.00,WeatherDisplay:10.37,2013-07-10 11:28:00,
2013-07-10 06:33:00,75.6,46.0,29.88,North,0,0.0,0.0,35,0.00,BKN,OVC,0.00,WeatherDisplay:10.37,2013-07-10 11:33:00,
2013-07-10 06:38:00,75.6,46.0,29.88,North,0,0.0,0.0,35,0.00,BKN,OVC,0.00,WeatherDisplay:10.37,2013-07-10 11:38:00,
2013-07-10 06:43:00,75.6,45.2,29.88,North,0,0.0,0.0,34,0.00,BKN,OVC,0.00,WeatherDisplay:10.37,2013-07-10 11:43:00,
2013-07-10 06:48:00,75.4,44.3,29.88,North,0,0.0,0.0,33,0.00,BKN,OVC,0.00,WeatherDisplay:10.37,2013-07-10 11:48:00,
2013-07-10 06:53:00,75.4,44.3,29.88,North,0,0.0,0.0,33,0.00,BKN,OVC,0.00,WeatherDisplay:10.37,2013-07-10 11:53:00,
2013-07-10 06:58:00,75.2,44.1,29.88,North,0,0.0,0.0,33,0.00,BKN,OVC,0.00,WeatherDisplay:10.37,2013-07-10 11:58:00,
2013-07-10 07:03:00,75.2,43.3,29.88,North,0,0.0,0.0,32,0.00,SCT,OVC,0.00,WeatherDisplay:10.37,2013-07-10 12:03:00,
2013-07-10 07:08:00,75.2,43.3,29.88,North,0,0.0,0.0,32,0.00,SCT,OVC,0.00,WeatherDisplay:10.37,2013-07-10 12:08:00,
2013-07-10 07:13:00,75.2,43.3,29.91,North,0,0.0,0.0,32,0.00,SCT,OVC,0.00,WeatherDisplay:10.37,2013-07-10 12:13:00,
2013-07-10 07:18:00,75.2,43.3,29.91,North,0,0.0,0.0,32,0.00,SCT,OVC,0.00,WeatherDisplay:10.37,2013-07-10 12:18:00,
2013-07-10 07:23:00,75.2,43.3,29.91,North,0,0.0,0.0,32,0.00,SCT,OVC,0.00,WeatherDisplay:10.37,2013-07-10 12:23:00,
2013-07-10 07:28:00,75.2,43.3,29.91,North,0,0.0,0.0,32,0.00,SCT,OVC,0.00,WeatherDisplay:10.37,2013-07-10 12:28:00,
2013-07-10 07:33:00,75.4,43.5,29.91,North,0,0.0,0.0,32,0.00,SCT,OVC,0.00,WeatherDisplay:10.37,2013-07-10 12:33:00,
2013-07-10 07:38:00,75.4,43.5,29.91,North,0,0.0,0.0,32,0.00,SCT,OVC,0.00,WeatherDisplay:10.37,2013-07-10 12:38:00,
2013-07-10 07:43:00,75.4,42.6,29.91,North,0,0.0,0.0,31,0.00,SCT,OVC,0.00,WeatherDisplay:10.37,2013-07-10 12:43:00,
2013-07-10 07:48:00,75.6,42.8,29.91,North,0,0.0,0.0,31,0.00,SCT,OVC,0.00,WeatherDisplay:10.37,2013-07-10 12:48:00,
2013-07-10 07:53:00,75.7,42.9,29.91,North,0,0.0,0.0,31,0.00,SCT,OVC,0.00,WeatherDisplay:10.37,2013-07-10 12:53:00,
2013-07-10 07:58:00,75.9,43.1,29.91,North,0,0.0,0.0,31,0.00,SCT,OVC,0.00,WeatherDisplay:10.37,2013-07-10 12:58:00,
2013-07-10 08:03:00,75.9,43.1,29.91,North,0,0.0,0.0,31,0.00,FEW,OVC,0.00,WeatherDisplay:10.37,2013-07-10 13:03:00,
2013-07-10 08:08:00,76.1,43.3,29.91,North,0,0.0,0.0,31,0.00,FEW,OVC,0.00,WeatherDisplay:10.37,2013-07-10 13:08:00,
2013-07-10 08:13:00,76.3,42.6,29.91,North,0,0.0,0.0,30,0.00,FEW,OVC,0.00,WeatherDisplay:10.37,2013-07-10 13:13:00,
2013-07-10 08:18:00,76.3,41.7,29.91,North,0,0.0,0.0,29,0.00,FEW,OVC,0.00,WeatherDisplay:10.37,2013-07-10 13:18:00,
2013-07-10 08:23:00,76.5,40.9,29.91,North,0,0.0,0.0,28,0.00,FEW,OVC,0.00,WeatherDisplay:10.37,2013-07-10 13:23:00,
2013-07-10 08:28:00,76.5,39.0,29.91,North,0,0.0,0.0,26,0.00,FEW,OVC,0.00,WeatherDisplay:10.37,2013-07-10 13:28:00,
2013-07-10 08:33:00,76.6,39.2,29.91,North,0,0.0,0.0,26,0.00,FEW,OVC,0.00,WeatherDisplay:10.37,2013-07-10 13:33:00,
2013-07-10 08:38:00,76.8,38.3,29.91,North,0,0.0,0.0,25,0.00,FEW,OVC,0.00,WeatherDisplay:10.37,2013-07-10 13:38:00,
2013-07-10 08:43:00,77.0,38.5,29.94,North,0,0.0,0.0,25,0.00,FEW,OVC,0.00,WeatherDisplay:10.37,2013-07-10 13:43:00,
2013-07-10 08:48:00,77.2,38.6,29.94,North,0,0.0,0.0,25,0.00,FEW,OVC,0.00,WeatherDisplay:10.37,2013-07-10 13:48:00,
2013-07-10 08:53:00,77.2,37.6,29.94,North,0,0.0,0.0,24,0.00,FEW,OVC,0.00,WeatherDisplay:10.37,2013-07-10 13:53:00,
2013-07-10 08:58:00,77.4,37.7,29.94,North,0,0.0,0.0,24,0.00,FEW,OVC,0.00,WeatherDisplay:10.37,2013-07-10 13:58:00,
2013-07-10 09:03:00,77.4,36.6,29.94,North,0,0.0,0.0,23,0.00,CLR,OVC,0.00,WeatherDisplay:10.37,2013-07-10 14:03:00,
2013-07-10 09:08:00,77.4,35.5,29.94,North,0,0.0,0.0,22,0.00,CLR,OVC,0.00,WeatherDisplay:10.37,2013-07-10 14:08:00,
2013-07-10 09:13:00,77.5,35.7,29.94,North,0,0.0,0.0,22,0.00,CLR,OVC,0.00,WeatherDisplay:10.37,2013-07-10 14:13:00,
2013-07-10 09:18:00,77.7,37.0,29.94,North,0,0.0,0.0,23,0.00,CLR,OVC,0.00,WeatherDisplay:10.37,2013-07-10 14:18:00,
2013-07-10 09:23:00,77.9,34.8,29.94,North,0,0.0,0.0,21,0.00,CLR,OVC,0.00,WeatherDisplay:10.37,2013-07-10 14:23:00,
2013-07-10 09:28:00,78.1,35.0,29.91,North,0,0.0,0.0,21,0.00,CLR,OVC,0.00,WeatherDisplay:10.37,2013-07-10 14:28:00,
2013-07-10 09:33:00,78.3,33.9,29.91,North,0,0.0,0.0,20,0.00,CLR,OVC,0.00,WeatherDisplay:10.37,2013-07-10 14:33:00,
2013-07-10 09:38:00,78.3,33.9,29.91,North,0,0.0,0.0,20,0.00,CLR,OVC,0.00,WeatherDisplay:10.37,2013-07-10 14:38:00,
2013-07-10 09:43:00,78.4,31.4,29.94,North,0,0.0,0.0,18,0.00,CLR,OVC,0.00,WeatherDisplay:10.37,2013-07-10 14:43:00,
2013-07-10 09:48:00,78.6,31.5,29.94,North,0,0.0,0.0,18,0.00,CLR,OVC,0.00,WeatherDisplay:10.37,2013-07-10 14:48:00,
2013-07-10 09:53:00,78.6,31.5,29.94,North,0,0.0,0.0,18,0.00,CLR,OVC,0.00,WeatherDisplay:10.37,2013-07-10 14:53:00,
2013-07-10 09:58:00,78.8,30.3,29.94,North,0,0.0,0.0,17,0.00,CLR,OVC,0.00,WeatherDisplay:10.37,2013-07-10 14:58:00,
2013-07-10 10:03:00,78.8,27.2,29.94,North,0,0.0,0.0,15,0.00,CLR,OVC,0.00,WeatherDisplay:10.37,2013-07-10 15:03:00,
2013-07-10 10:08:00,79.0,27.4,29.94,North,0,0.0,0.0,15,0.00,CLR,OVC,0.00,WeatherDisplay:10.37,2013-07-10 15:08:00,
2013-07-10 10:13:00,79.2,30.6,29.94,North,0,0.0,0.0,17,0.00,CLR,OVC,0.00,WeatherDisplay:10.37,2013-07-10 15:13:00,
2013-07-10 10:18:00,79.3,27.6,29.94,North,0,0.0,0.0,15,0.00,CLR,OVC,0.00,WeatherDisplay:10.37,2013-07-10 15:18:00,
2013-07-10 10:23:00,79.3,22.3,29.94,North,0,0.0,0.0,12,0.00,CLR,OVC,0.00,WeatherDisplay:10.37,2013-07-10 15:23:00,
2013-07-10 10:28:00,79.7,35.1,29.94,North,0,0.0,0.0,20,0.00,CLR,OVC,0.00,WeatherDisplay:10.37,2013-07-10 15:28:00,
2013-07-10 10:33:00,79.9,28.1,29.94,North,0,0.0,0.0,15,0.00,CLR,OVC,0.00,WeatherDisplay:10.37,2013-07-10 15:33:00,
2013-07-10 10:38:00,79.9,22.7,29.94,North,0,0.0,0.0,12,0.00,CLR,OVC,0.00,WeatherDisplay:10.37,2013-07-10 15:38:00,
2013-07-10 10:43:00,80.1,18.5,29.97,North,0,0.0,0.0,10,0.00,CLR,OVC,0.00,WeatherDisplay:10.37,2013-07-10 15:43:00,
2013-07-10 10:48:00,80.6,23.3,29.97,North,0,0.0,0.0,12,0.00,CLR,OVC,0.00,WeatherDisplay:10.37,2013-07-10 15:48:00,
2013-07-10 10:53:00,81.0,23.5,29.97,North,0,0.0,0.0,12,0.00,CLR,OVC,0.00,WeatherDisplay:10.37,2013-07-10 15:53:00,
2013-07-10 10:58:00,81.1,23.7,29.97,North,0,0.0,0.0,12,0.00,CLR,OVC,0.00,WeatherDisplay:10.37,2013-07-10 15:58:00,
2013-07-10 11:03:00,81.3,23.8,29.97,North,0,0.0,0.0,12,0.00,CLR,OVC,0.00,WeatherDisplay:10.37,2013-07-10 16:03:00,
2013-07-10 11:08:00,81.5,17.2,29.97,North,0,0.0,0.0,9,0.00,CLR,OVC,0.00,WeatherDisplay:10.37,2013-07-10 16:08:00,
2013-07-10 11:13:00,81.9,17.5,29.97,North,0,0.0,0.0,9,0.00,CLR,OVC,0.00,WeatherDisplay:10.37,2013-07-10 16:13:00,
2013-07-10 11:18:00,82.2,24.5,29.97,North,0,0.0,0.0,12,0.00,CLR,OVC,0.00,WeatherDisplay:10.37,2013-07-10 16:18:00,
2013-07-10 11:23:00,82.4,17.9,29.97,North,0,0.0,0.0,9,0.00,CLR,OVC,0.00,WeatherDisplay:10.37,2013-07-10 16:23:00,
2013-07-10 11:28:00,83.1,18.4,29.97,North,0,0.0,0.0,9,0.00,CLR,OVC,0.00,WeatherDisplay:10.37,2013-07-10 16:28:00,
2013-07-10 11:33:00,82.9,18.3,29.97,North,0,0.0,0.0,9,0.00,CLR,OVC,0.00,WeatherDisplay:10.37,2013-07-10 16:33:00,
2013-07-10 11:38:00,82.9,18.3,29.97,North,0,0.0,0.0,9,0.00,CLR,OVC,0.00,WeatherDisplay:10.37,2013-07-10 16:38:00,
2013-07-10 11:43:00,83.1,18.4,29.97,North,0,0.0,0.0,9,0.00,CLR,OVC,0.00,WeatherDisplay:10.37,2013-07-10 16:43:00,
2013-07-10 11:48:00,83.1,18.4,29.97,North,0,0.0,0.0,9,0.00,CLR,OVC,0.00,WeatherDisplay:10.37,2013-07-10 16:48:00,
2013-07-10 11:53:00,83.5,18.7,29.97,North,0,0.0,0.0,9,0.00,CLR,OVC,0.00,WeatherDisplay:10.37,2013-07-10 16:53:00,
2013-07-10 11:58:00,83.3,18.5,29.97,North,0,0.0,0.0,9,0.00,CLR,OVC,0.00,WeatherDisplay:10.37,2013-07-10 16:58:00,
2013-07-10 12:03:00,83.1,18.4,29.97,North,0,0.0,0.0,9,0.00,BKN,OVC,0.00,WeatherDisplay:10.37,2013-07-10 17:03:00,
2013-07-10 12:08:00,82.9,18.3,29.97,North,0,0.0,0.0,9,0.00,BKN,OVC,0.00,WeatherDisplay:10.37,2013-07-10 17:08:00,
2013-07-10 12:13:00,82.8,18.1,29.97,North,0,0.0,0.0,9,0.00,BKN,OVC,0.00,WeatherDisplay:10.37,2013-07-10 17:13:00,
2013-07-10 12:18:00,82.2,17.7,29.97,North,0,0.0,0.0,9,0.00,BKN,OVC,0.00,WeatherDisplay:10.37,2013-07-10 17:18:00,
2013-07-10 12:23:00,82.9,18.3,29.97,North,0,0.0,0.0,9,0.00,BKN,OVC,0.00,WeatherDisplay:10.37,2013-07-10 17:23:00,
2013-07-10 12:28:00,83.8,18.9,29.97,North,0,0.0,0.0,9,0.00,BKN,OVC,0.00,WeatherDisplay:10.37,2013-07-10 17:28:00,
2013-07-10 12:33:00,83.7,18.8,29.97,North,0,0.0,0.0,9,0.00,BKN,OVC,0.00,WeatherDisplay:10.37,2013-07-10 17:33:00,
2013-07-10 12:38:00,83.5,18.7,29.97,North,0,0.0,0.0,9,0.00,BKN,OVC,0.00,WeatherDisplay:10.37,2013-07-10 17:38:00,
2013-07-10 12:43:00,83.5,18.7,29.97,North,0,0.0,0.0,9,0.00,BKN,OVC,0.00,WeatherDisplay:10.37,2013-07-10 17:43:00,
2013-07-10 12:48:00,83.8,18.9,29.97,North,0,0.0,0.0,9,0.00,BKN,OVC,0.00,WeatherDisplay:10.37,2013-07-10 17:48:00,
2013-07-10 12:53:00,84.6,16.7,29.97,North,0,0.0,0.0,8,0.00,BKN,OVC,0.00,WeatherDisplay:10.37,2013-07-10 17:53:00,
2013-07-10 12:58:00,85.1,17.1,29.97,North,0,0.0,0.0,8,0.00,BKN,OVC,0.00,WeatherDisplay:10.37,2013-07-10 17:58:00,
2013-07-10 13:03:00,85.1,17.1,29.97,North,0,0.0,0.0,8,0.00,BKN,OVC,0.00,WeatherDisplay:10.37,2013-07-10 18:03:00,
2013-07-10 13:08:00,84.7,16.9,29.97,North,0,0.0,0.0,8,0.00,BKN,OVC,0.00,WeatherDisplay:10.37,2013-07-10 18:08:00,
2013-07-10 13:14:00,84.0,19.1,29.97,North,0,0.0,0.0,9,0.00,BKN,OVC,0.00,WeatherDisplay:10.37,2013-07-10 18:14:00,
2013-07-10 13:19:00,83.8,18.9,29.97,North,0,0.0,0.0,9,0.00,BKN,OVC,0.00,WeatherDisplay:10.37,2013-07-10 18:19:00,
2013-07-10 13:24:00,84.2,16.5,29.97,North,0,0.0,0.0,8,0.00,BKN,OVC,0.00,WeatherDisplay:10.37,2013-07-10 18:24:00,
2013-07-10 13:29:00,84.4,16.6,29.97,North,0,0.0,0.0,8,0.00,BKN,OVC,0.00,WeatherDisplay:10.37,2013-07-10 18:29:00,
2013-07-10 13:34:00,84.4,10.1,29.97,North,0,0.0,0.0,6,0.00,BKN,OVC,0.00,WeatherDisplay:10.37,2013-07-10 18:34:00,
2013-07-10 13:39:00,84.0,19.1,29.97,North,0,0.0,0.0,9,0.00,BKN,OVC,0.00,WeatherDisplay:10.37,2013-07-10 18:39:00,
2013-07-10 13:44:00,84.4,16.6,29.97,North,0,0.0,0.0,8,0.00,BKN,OVC,0.00,WeatherDisplay:10.37,2013-07-10 18:44:00,
2013-07-10 13:49:00,84.2,9.9,29.97,North,0,0.0,0.0,6,0.00,BKN,OVC,0.00,WeatherDisplay:10.37,2013-07-10 18:49:00,
2013-07-10 13:54:00,84.2,16.5,29.97,North,0,0.0,0.0,8,0.00,BKN,OVC,0.00,WeatherDisplay:10.37,2013-07-10 18:54:00,
2013-07-10 13:59:00,84.7,16.9,29.97,North,0,0.0,0.0,8,0.00,BKN,OVC,0.00,WeatherDisplay:10.37,2013-07-10 18:59:00,
2013-07-10 14:04:00,85.1,17.1,29.97,North,0,0.0,0.0,8,0.00,BKN,OVC,0.00,WeatherDisplay:10.37,2013-07-10 19:04:00,
2013-07-10 14:09:00,85.3,17.3,29.97,North,0,0.0,0.0,8,0.00,BKN,OVC,0.00,WeatherDisplay:10.37,2013-07-10 19:09:00,
2013-07-10 14:14:00,85.1,10.6,29.97,North,0,0.0,0.0,6,0.00,BKN,OVC,0.00,WeatherDisplay:10.37,2013-07-10 19:14:00,
2013-07-10 14:19:00,84.6,10.2,29.97,North,0,0.0,0.0,6,0.00,BKN,OVC,0.00,WeatherDisplay:10.37,2013-07-10 19:19:00,
2013-07-10 14:24:00,84.0,9.8,29.97,North,0,0.0,0.0,6,0.00,BKN,OVC,0.00,WeatherDisplay:10.37,2013-07-10 19:24:00,
2013-07-10 14:29:00,83.7,18.8,29.97,North,0,0.0,0.0,9,0.00,BKN,OVC,0.00,WeatherDisplay:10.37,2013-07-10 19:29:00,
2013-07-10 14:34:00,84.0,19.1,29.97,North,0,0.0,0.0,9,0.00,BKN,OVC,0.00,WeatherDisplay:10.37,2013-07-10 19:34:00,
2013-07-10 14:39:00,84.6,10.2,29.97,North,0,0.0,0.0,6,0.00,BKN,OVC,0.00,WeatherDisplay:10.37,2013-07-10 19:39:00,
2013-07-10 14:44:00,84.7,10.3,29.97,North,0,0.0,0.0,6,0.00,BKN,OVC,0.00,WeatherDisplay:10.37,2013-07-10 19:44:00,
2013-07-10 14:49:00,84.4,10.1,29.97,North,0,0.0,0.0,6,0.00,BKN,OVC,0.00,WeatherDisplay:10.37,2013-07-10 19:49:00,
2013-07-10 14:54:00,84.2,9.9,29.97,North,0,0.0,0.0,6,0.00,BKN,OVC,0.00,WeatherDisplay:10.37,2013-07-10 19:54:00,
2013-07-10 14:59:00,84.6,10.2,29.97,North,0,0.0,0.0,6,0.00,BKN,OVC,0.00,WeatherDisplay:10.37,2013-07-10 19:59:00,
2013-07-10 15:04:00,84.2,9.9,29.97,North,0,0.0,0.0,6,0.00,BKN,OVC,0.00,WeatherDisplay:10.37,2013-07-10 20:04:00,
2013-07-10 15:09:00,83.5,9.4,29.97,North,0,0.0,0.0,6,0.00,BKN,OVC,0.00,WeatherDisplay:10.37,2013-07-10 20:09:00,
2013-07-10 15:14:00,82.9,9.0,29.97,North,0,0.0,0.0,6,0.00,BKN,OVC,0.00,WeatherDisplay:10.37,2013-07-10 20:14:00,
2013-07-10 15:19:00,83.7,18.8,29.97,North,0,0.0,0.0,9,0.00,BKN,OVC,0.00,WeatherDisplay:10.37,2013-07-10 20:19:00,
2013-07-10 15:24:00,84.9,10.5,29.97,North,0,0.0,0.0,6,0.00,BKN,OVC,0.00,WeatherDisplay:10.37,2013-07-10 20:24:00,
2013-07-10 15:29:00,85.8,11.1,29.97,North,0,0.0,0.0,6,0.00,BKN,OVC,0.00,WeatherDisplay:10.37,2013-07-10 20:29:00,
2013-07-10 15:34:00,86.5,18.2,29.97,North,0,0.0,0.0,8,0.00,BKN,OVC,0.00,WeatherDisplay:10.37,2013-07-10 20:34:00,
2013-07-10 15:39:00,86.5,18.2,29.97,North,0,0.0,0.0,8,0.00,BKN,OVC,0.00,WeatherDisplay:10.37,2013-07-10 20:39:00,
2013-07-10 15:44:00,86.4,11.5,29.97,North,0,0.0,0.0,6,0.00,BKN,OVC,0.00,WeatherDisplay:10.37,2013-07-10 20:44:00,
2013-07-10 15:49:00,86.5,11.6,29.97,North,0,0.0,0.0,6,0.00,BKN,OVC,0.00,WeatherDisplay:10.37,2013-07-10 20:49:00,
2013-07-10 15:54:00,86.2,11.4,29.97,North,0,0.0,0.0,6,0.00,BKN,OVC,0.00,WeatherDisplay:10.37,2013-07-10 20:54:00,
2013-07-10 15:59:00,85.6,11.0,29.97,North,0,0.0,0.0,6,0.00,BKN,OVC,0.00,WeatherDisplay:10.37,2013-07-10 20:59:00,
2013-07-10 16:04:00,85.3,10.7,29.97,North,0,0.0,0.0,6,0.00,SCT,OVC,0.00,WeatherDisplay:10.37,2013-07-10 21:04:00,
2013-07-10 16:09:00,84.9,10.5,29.97,North,0,0.0,0.0,6,0.00,SCT,OVC,0.00,WeatherDisplay:10.37,2013-07-10 21:09:00,
2013-07-10 16:14:00,84.6,10.2,29.97,North,0,0.0,0.0,6,0.00,SCT,OVC,0.00,WeatherDisplay:10.37,2013-07-10 21:14:00,
2013-07-10 16:19:00,84.7,10.3,29.97,North,0,0.0,0.0,6,0.00,SCT,OVC,0.00,WeatherDisplay:10.37,2013-07-10 21:19:00,
2013-07-10 16:24:00,84.4,10.1,29.97,North,0,0.0,0.0,6,0.00,SCT,OVC,0.00,WeatherDisplay:10.37,2013-07-10 21:24:00,
2013-07-10 16:29:00,84.0,9.8,29.97,North,0,0.0,0.0,6,0.00,SCT,OVC,0.00,WeatherDisplay:10.37,2013-07-10 21:29:00,
2013-07-10 16:34:00,84.4,10.1,29.97,North,0,0.0,0.0,6,0.00,SCT,OVC,0.00,WeatherDisplay:10.37,2013-07-10 21:34:00,
2013-07-10 16:39:00,85.1,10.6,29.97,North,0,0.0,0.0,6,0.00,SCT,OVC,0.00,WeatherDisplay:10.37,2013-07-10 21:39:00,
2013-07-10 16:44:00,84.9,10.5,29.97,North,0,0.0,0.0,6,0.00,SCT,OVC,0.00,WeatherDisplay:10.37,2013-07-10 21:44:00,
2013-07-10 16:49:00,84.6,10.2,29.97,North,0,0.0,0.0,6,0.00,SCT,OVC,0.00,WeatherDisplay:10.37,2013-07-10 21:49:00,
2013-07-10 16:54:00,84.2,9.9,29.97,North,0,0.0,0.0,6,0.00,SCT,OVC,0.00,WeatherDisplay:10.37,2013-07-10 21:54:00,
2013-07-10 16:59:00,84.0,9.8,29.97,North,0,0.0,0.0,6,0.00,SCT,OVC,0.00,WeatherDisplay:10.37,2013-07-10 21:59:00,
2013-07-10 17:04:00,84.2,9.9,29.97,North,0,0.0,0.0,6,0.00,SCT,OVC,0.00,WeatherDisplay:10.37,2013-07-10 22:04:00,
2013-07-10 17:09:00,84.4,10.1,29.97,North,0,0.0,0.0,6,0.00,SCT,OVC,0.00,WeatherDisplay:10.37,2013-07-10 22:09:00,
2013-07-10 17:14:00,84.2,9.9,29.97,North,0,0.0,0.0,6,0.00,SCT,OVC,0.00,WeatherDisplay:10.37,2013-07-10 22:14:00,
2013-07-10 17:19:00,83.7,9.5,29.97,North,0,0.0,0.0,6,0.00,SCT,OVC,0.00,WeatherDisplay:10.37,2013-07-10 22:19:00,
2013-07-10 17:24:00,82.9,9.0,29.97,North,0,0.0,0.0,6,0.00,SCT,OVC,0.00,WeatherDisplay:10.37,2013-07-10 22:24:00,
2013-07-10 17:29:00,82.4,8.6,29.94,North,0,0.0,0.0,6,0.00,SCT,OVC,0.00,WeatherDisplay:10.37,2013-07-10 22:29:00,
2013-07-10 17:34:00,82.0,11.8,29.94,North,0,0.0,0.0,7,0.00,SCT,OVC,0.00,WeatherDisplay:10.37,2013-07-10 22:34:00,
2013-07-10 17:39:00,81.5,11.4,29.94,North,0,0.0,0.0,7,0.00,SCT,OVC,0.00,WeatherDisplay:10.37,2013-07-10 22:39:00,
2013-07-10 17:44:00,80.8,10.9,29.94,North,0,0.0,0.0,7,0.00,SCT,OVC,0.00,WeatherDisplay:10.37,2013-07-10 22:44:00,
2013-07-10 17:49:00,80.2,10.5,29.94,North,0,0.0,0.0,7,0.00,SCT,OVC,0.00,WeatherDisplay:10.37,2013-07-10 22:49:00,
2013-07-10 17:54:00,80.2,10.5,29.94,North,0,0.0,0.0,7,0.00,SCT,OVC,0.00,WeatherDisplay:10.37,2013-07-10 22:54:00,
2013-07-10 17:59:00,80.1,10.4,29.97,North,0,0.0,0.0,7,0.00,SCT,OVC,0.00,WeatherDisplay:10.37,2013-07-10 22:59:00,
2013-07-10 18:04:00,79.5,10.0,29.97,North,0,0.0,0.0,7,0.00,FEW,OVC,0.00,WeatherDisplay:10.37,2013-07-10 23:04:00,
2013-07-10 18:09:00,79.0,9.6,29.97,North,0,0.0,0.0,7,0.00,FEW,OVC,0.00,WeatherDisplay:10.37,2013-07-10 23:09:00,
2013-07-10 18:14:00,78.8,9.5,29.97,North,0,0.0,0.0,7,0.00,FEW,OVC,0.00,WeatherDisplay:10.37,2013-07-10 23:14:00,
2013-07-10 18:19:00,78.6,12.3,29.97,North,0,0.0,0.0,8,0.00,FEW,OVC,0.00,WeatherDisplay:10.37,2013-07-10 23:19:00,
2013-07-10 18:24:00,78.4,12.2,29.97,North,0,0.0,0.0,8,0.00,FEW,OVC,0.00,WeatherDisplay:10.37,2013-07-10 23:24:00,
2013-07-10 18:29:00,78.4,12.2,29.97,North,0,0.0,0.0,8,0.00,FEW,OVC,0.00,WeatherDisplay:10.37,2013-07-10 23:29:00,
2013-07-10 18:34:00,78.3,12.1,29.97,North,0,0.0,0.0,8,0.00,FEW,OVC,0.00,WeatherDisplay:10.37,2013-07-10 23:34:00,
2013-07-10 18:39:00,78.1,11.9,29.97,North,0,0.0,0.0,8,0.00,FEW,OVC,0.00,WeatherDisplay:10.37,2013-07-10 23:39:00,
2013-07-10 18:44:00,77.7,11.7,29.94,North,0,0.0,0.0,8,0.00,FEW,OVC,0.00,WeatherDisplay:10.37,2013-07-10 23:44:00,
2013-07-10 18:49:00,77.5,11.5,29.94,North,0,0.0,0.0,8,0.00,FEW,OVC,0.00,WeatherDisplay:10.37,2013-07-10 23:49:00,
2013-07-10 18:54:00,77.4,11.4,29.94,North,0,0.0,0.0,8,0.00,FEW,OVC,0.00,WeatherDisplay:10.37,2013-07-10 23:54:00,
2013-07-10 18:59:00,77.2,11.3,29.94,North,0,0.0,0.0,8,0.00,FEW,OVC,0.00,WeatherDisplay:10.37,2013-07-10 23:59:00,
2013-07-10 19:04:00,77.0,11.1,29.94,North,0,0.0,0.0,8,0.00,CLR,OVC,0.00,WeatherDisplay:10.37,2013-07-11 00:04:00,
2013-07-10 19:09:00,76.6,10.9,29.94,North,0,0.0,0.0,8,0.00,CLR,OVC,0.00,WeatherDisplay:10.37,2013-07-11 00:09:00,
2013-07-10 19:14:00,76.5,10.7,29.97,North,0,0.0,0.0,8,0.00,CLR,OVC,0.00,WeatherDisplay:10.37,2013-07-11 00:14:00,
2013-07-10 19:19:00,76.3,10.6,29.97,North,0,0.0,0.0,8,0.00,CLR,OVC,0.00,WeatherDisplay:10.37,2013-07-11 00:19:00,
2013-07-10 19:24:00,75.9,10.3,29.97,North,0,0.0,0.0,8,0.00,CLR,OVC,0.00,WeatherDisplay:10.37,2013-07-11 00:24:00,
2013-07-10 19:29:00,75.7,10.2,29.97,North,0,0.0,0.0,8,0.00,CLR,OVC,0.00,WeatherDisplay:10.37,2013-07-11 00:29:00,
2013-07-10 19:34:00,75.6,10.0,29.97,North,0,0.0,0.0,8,0.00,CLR,OVC,0.00,WeatherDisplay:10.37,2013-07-11 00:34:00,
2013-07-10 19:39:00,75.4,9.9,29.97,North,0,0.0,0.0,8,0.00,CLR,OVC,0.00,WeatherDisplay:10.37,2013-07-11 00:39:00,
2013-07-10 19:44:00,75.2,9.8,29.97,North,0,0.0,0.0,8,0.00,CLR,OVC,0.00,WeatherDisplay:10.37,2013-07-11 00:44:00,
2013-07-10 19:49:00,75.0,9.6,29.97,North,0,0.0,0.0,8,0.00,CLR,OVC,0.00,WeatherDisplay:10.37,2013-07-11 00:49:00,
2013-07-10 19:54:00,74.8,9.5,29.97,North,0,0.0,0.0,8,0.00,CLR,OVC,0.00,WeatherDisplay:10.37,2013-07-11 00:54:00,
2013-07-10 19:59:00,74.7,9.4,29.97,North,0,0.0,0.0,8,0.00,CLR,OVC,0.00,WeatherDisplay:10.37,2013-07-11 00:59:00,
2013-07-10 20:04:00,74.7,9.4,29.97,North,0,0.0,0.0,8,0.00,CLR,OVC,0.00,WeatherDisplay:10.37,2013-07-11 01:04:00,
2013-07-10 20:09:00,74.5,9.2,29.97,North,0,0.0,0.0,8,0.00,CLR,OVC,0.00,WeatherDisplay:10.37,2013-07-11 01:09:00,
2013-07-10 20:14:00,74.1,16.2,29.97,North,0,0.0,0.0,11,0.00,CLR,OVC,0.00,WeatherDisplay:10.37,2013-07-11 01:14:00,
2013-07-10 20:19:00,73.9,8.8,29.97,North,0,0.0,0.0,8,0.00,CLR,OVC,0.00,WeatherDisplay:10.37,2013-07-11 01:19:00,
2013-07-10 20:24:00,73.8,15.9,29.97,North,0,0.0,0.0,11,0.00,CLR,OVC,0.00,WeatherDisplay:10.37,2013-07-11 01:24:00,
2013-07-10 20:29:00,73.6,15.8,29.97,North,0,0.0,0.0,11,0.00,CLR,OVC,0.00,WeatherDisplay:10.37,2013-07-11 01:29:00,
2013-07-10 20:34:00,73.4,15.6,29.97,North,0,0.0,0.0,11,0.00,CLR,OVC,0.00,WeatherDisplay:10.37,2013-07-11 01:34:00,
2013-07-10 20:39:00,73.2,15.5,29.97,North,0,0.0,0.0,11,0.00,CLR,OVC,0.00,WeatherDisplay:10.37,2013-07-11 01:39:00,
2013-07-10 20:44:00,72.9,15.2,29.97,North,0,0.0,0.0,11,0.00,CLR,OVC,0.00,WeatherDisplay:10.37,2013-07-11 01:44:00,
2013-07-10 20:49:00,72.5,14.9,29.97,North,0,0.0,0.0,11,0.00,CLR,OVC,0.00,WeatherDisplay:10.37,2013-07-11 01:49:00,
2013-07-10 20:54:00,72.1,14.7,29.97,North,0,0.0,0.0,11,0.00,CLR,OVC,0.00,WeatherDisplay:10.37,2013-07-11 01:54:00,
2013-07-10 20:59:00,71.8,14.4,29.97,North,0,0.0,0.0,11,0.00,CLR,OVC,0.00,WeatherDisplay:10.37,2013-07-11 01:59:00,
2013-07-10 21:04:00,71.4,16.1,29.97,North,0,0.0,0.0,12,0.00,CLR,OVC,0.00,WeatherDisplay:10.37,2013-07-11 02:04:00,
2013-07-10 21:09:00,71.1,15.8,29.97,North,0,0.0,0.0,12,0.00,CLR,OVC,0.00,WeatherDisplay:10.37,2013-07-11 02:09:00,
2013-07-10 21:14:00,70.9,19.3,29.97,North,0,0.0,0.0,14,0.00,CLR,OVC,0.00,WeatherDisplay:10.37,2013-07-11 02:14:00,
2013-07-10 21:19:00,70.7,19.1,29.97,North,0,0.0,0.0,14,0.00,CLR,OVC,0.00,WeatherDisplay:10.37,2013-07-11 02:19:00,
2013-07-10 21:24:00,70.5,19.0,29.97,North,0,0.0,0.0,14,0.00,CLR,OVC,0.00,WeatherDisplay:10.37,2013-07-11 02:24:00,
2013-07-10 21:29:00,70.3,18.8,29.97,North,0,0.0,0.0,14,0.00,CLR,OVC,0.00,WeatherDisplay:10.37,2013-07-11 02:29:00,
2013-07-10 21:34:00,70.2,18.7,29.97,North,0,0.0,0.0,14,0.00,CLR,OVC,0.00,WeatherDisplay:10.37,2013-07-11 02:34:00,
2013-07-10 21:39:00,70.0,18.5,29.97,North,0,0.0,0.0,14,0.00,CLR,OVC,0.00,WeatherDisplay:10.37,2013-07-11 02:39:00,
2013-07-10 21:44:00,70.0,18.5,29.97,North,0,0.0,0.0,14,0.00,CLR,OVC,0.00,WeatherDisplay:10.37,2013-07-11 02:44:00,
2013-07-10 21:49:00,69.8,23.0,29.97,North,0,0.0,0.0,17,0.00,CLR,OVC,0.00,WeatherDisplay:10.37,2013-07-11 02:49:00,
2013-07-10 21:54:00,69.4,22.7,29.97,North,0,0.0,0.0,17,0.00,CLR,OVC,0.00,WeatherDisplay:10.37,2013-07-11 02:54:00,
2013-07-10 21:59:00,69.4,22.7,29.97,North,0,0.0,0.0,17,0.00,CLR,OVC,0.00,WeatherDisplay:10.37,2013-07-11 02:59:00,
2013-07-10 22:04:00,69.3,22.5,29.97,North,0,0.0,0.0,17,0.00,CLR,OVC,0.00,WeatherDisplay:10.37,2013-07-11 03:04:00,
2013-07-10 22:09:00,69.1,22.4,29.97,North,0,0.0,0.0,17,0.00,CLR,OVC,0.00,WeatherDisplay:10.37,2013-07-11 03:09:00,
2013-07-10 22:14:00,68.9,26.1,30.00,North,0,0.0,0.0,20,0.00,CLR,OVC,0.00,WeatherDisplay:10.37,2013-07-11 03:14:00,
2013-07-10 22:19:00,68.7,26.0,30.00,North,0,0.0,0.0,20,0.00,CLR,OVC,0.00,WeatherDisplay:10.37,2013-07-11 03:19:00,
2013-07-10 22:24:00,68.5,28.2,30.00,North,0,0.0,0.0,22,0.00,CLR,OVC,0.00,WeatherDisplay:10.37,2013-07-11 03:24:00,
2013-07-10 22:29:00,68.4,28.0,30.00,North,0,0.0,0.0,22,0.00,CLR,OVC,0.00,WeatherDisplay:10.37,2013-07-11 03:29:00,
2013-07-10 22:34:00,68.0,28.8,30.00,North,0,0.0,0.0,23,0.00,CLR,OVC,0.00,WeatherDisplay:10.37,2013-07-11 03:34:00,
2013-07-10 22:39:00,67.8,28.6,30.00,North,0,0.0,0.0,23,0.00,CLR,OVC,0.00,WeatherDisplay:10.37,2013-07-11 03:39:00,
2013-07-10 22:44:00,67.6,28.5,30.00,North,0,0.0,0.0,23,0.00,CLR,OVC,0.00,WeatherDisplay:10.37,2013-07-11 03:44:00,
2013-07-10 22:49:00,67.5,29.4,30.00,North,0,0.0,0.0,24,0.00,CLR,OVC,0.00,WeatherDisplay:10.37,2013-07-11 03:49:00,
2013-07-10 22:54:00,67.3,29.2,30.00,North,0,0.0,0.0,24,0.00,CLR,OVC,0.00,WeatherDisplay:10.37,2013-07-11 03:54:00,
2013-07-10 22:59:00,67.1,29.1,30.00,North,0,0.0,0.0,24,0.00,CLR,OVC,0.00,WeatherDisplay:10.37,2013-07-11 03:59:00,
2013-07-10 23:01:00,66.9,28.9,30.00,North,0,0.0,0.0,24,0.00,CLR,OVC,0.00,WeatherDisplay:10.37,2013-07-11 04:01:00,
2013-07-10 23:03:00,66.9,28.9,30.00,North,0,0.0,0.0,24,0.00,CLR,OVC,0.00,WeatherDisplay:10.37,2013-07-11 04:03:00,
2013-07-10 23:05:00,66.7,29.8,30.00,North,0,0.0,0.0,25,0.00,CLR,OVC,0.00,WeatherDisplay:10.37,2013-07-11 04:05:00,
2013-07-10 23:10:00,66.6,29.6,30.00,North,0,0.0,0.0,25,0.00,CLR,OVC,0.00,WeatherDisplay:10.37,2013-07-11 04:10:00,
2013-07-10 23:15:00,66.6,30.6,30.00,North,0,0.0,0.0,26,0.00,CLR,OVC,0.00,WeatherDisplay:10.37,2013-07-11 04:15:00,
2013-07-10 23:20:00,66.4,30.4,30.00,North,0,0.0,0.0,26,0.00,CLR,OVC,0.00,WeatherDisplay:10.37,2013-07-11 04:20:00,
2013-07-10 23:25:00,66.2,31.2,30.00,North,0,0.0,0.0,27,0.00,CLR,OVC,0.00,WeatherDisplay:10.37,2013-07-11 04:25:00,
2013-07-10 23:30:00,66.0,32.0,30.00,North,0,0.0,0.0,28,0.00,CLR,OVC,0.00,WeatherDisplay:10.37,2013-07-11 04:30:00,
2013-07-10 23:35:00,65.8,32.7,30.00,North,0,0.0,0.0,29,0.00,CLR,OVC,0.00,WeatherDisplay:10.37,2013-07-11 04:35:00,
2013-07-10 23:40:00,65.7,33.4,30.00,North,0,0.0,0.0,30,0.00,CLR,OVC,0.00,WeatherDisplay:10.37,2013-07-11 04:40:00,
2013-07-10 23:45:00,65.7,33.4,29.97,North,0,0.0,0.0,30,0.00,CLR,OVC,0.00,WeatherDisplay:10.37,2013-07-11 04:45:00,
2013-07-10 23:50:00,65.5,34.8,29.97,North,0,0.0,0.0,32,0.00,CLR,OVC,0.00,WeatherDisplay:10.37,2013-07-11 04:50:00,
2013-07-10 23:55:00,65.5,35.6,29.97,North,0,0.0,0.0,33,0.00,CLR,OVC,0.00,WeatherDisplay:10.37,2013-07-11 04:55:00,